PWSweather.com
Personal Weather Stations
Station Observations
WATERF01
WaterfordIE

WaterfordIE

Lat: 52.2412507, Lon: -7.1414691

Elevation: 65

Station Type: Davis Vantage Vue

www.waterfordweather.com

High Low Average
Temperature 69.8°F21.0°C 59.1°F15.1°C 63.4°F17.4°C
Dew Point 63.3°F17.4°C 55.2°F12.9°C 59.1°F15.1°C
Winds 16.1 mph 25.9 kmh 1.2 mph 1.9 kmh 7.0 mph WSW11.3 kmh WSW
Wind Gusts 27.6 mph44.4 kmh 2.3 mph3.7 kmh 13.0 mph20.9 kmh
Humidity 89% 79% 86%
Pressure 30.08 in1018.6 mb 29.91 in1012.9 mb -
Precipitation 0.02 in0.5 mm - -
Hour Temp Dew Point Humidity Winds Wind Gusts Pressure Precip Precip Rate Daily Precip Total
12:00 AM 59.3°F15.2°C 55.4°F13.0°C 87% 1.2 mph SW1.9 kmh SW 2.3 mph3.7 kmh 30.08 in1018.6 mb - 0.00 in0.0 mm 0.00 in0.0 mm
12:10 AM 59.1°F15.1°C 55.2°F12.9°C 87% 1.2 mph WNW1.9 kmh WNW 2.3 mph3.7 kmh 30.08 in1018.6 mb - 0.00 in0.0 mm 0.00 in0.0 mm
12:20 AM 59.1°F15.1°C 55.2°F12.9°C 87% 2.3 mph W3.7 kmh W 2.3 mph3.7 kmh 30.07 in1018.3 mb - 0.00 in0.0 mm 0.00 in0.0 mm
12:30 AM 59.2°F15.1°C 55.3°F12.9°C 87% 4.6 mph W7.4 kmh W 8.1 mph13.0 kmh 30.07 in1018.3 mb - 0.00 in0.0 mm 0.00 in0.0 mm
12:40 AM 59.3°F15.2°C 55.4°F13.0°C 87% 4.6 mph WNW7.4 kmh WNW 9.2 mph14.8 kmh 30.07 in1018.3 mb - 0.00 in0.0 mm 0.00 in0.0 mm
12:50 AM 59.5°F15.3°C 55.6°F13.1°C 87% 5.8 mph W9.3 kmh W 8.1 mph13.0 kmh 30.07 in1018.3 mb - 0.00 in0.0 mm 0.00 in0.0 mm
01:00 AM 59.7°F15.4°C 55.8°F13.2°C 87% 5.8 mph W9.3 kmh W 13.8 mph22.2 kmh 30.07 in1018.3 mb - 0.00 in0.0 mm 0.00 in0.0 mm
01:10 AM 59.9°F15.5°C 56.0°F13.3°C 87% 8.1 mph W13.0 kmh W 13.8 mph22.2 kmh 30.07 in1018.3 mb - 0.00 in0.0 mm 0.00 in0.0 mm
01:20 AM 60.0°F15.6°C 56.1°F13.4°C 87% 6.9 mph W11.1 kmh W 9.2 mph14.8 kmh 30.07 in1018.3 mb - 0.00 in0.0 mm 0.00 in0.0 mm
01:30 AM 60.0°F15.6°C 56.2°F13.4°C 87% 6.9 mph WSW11.1 kmh WSW 11.5 mph18.5 kmh 30.07 in1018.3 mb - 0.00 in0.0 mm 0.00 in0.0 mm
01:40 AM 59.9°F15.5°C 56.0°F13.3°C 87% 5.8 mph W9.3 kmh W 12.7 mph20.4 kmh 30.07 in1018.3 mb - 0.00 in0.0 mm 0.00 in0.0 mm
01:50 AM 59.7°F15.4°C 55.8°F13.2°C 87% 6.9 mph W11.1 kmh W 11.5 mph18.5 kmh 30.07 in1018.3 mb - 0.00 in0.0 mm 0.00 in0.0 mm
02:00 AM 59.7°F15.4°C 55.8°F13.2°C 87% 4.6 mph WSW7.4 kmh WSW 12.7 mph20.4 kmh 30.07 in1018.3 mb - 0.00 in0.0 mm 0.00 in0.0 mm
02:10 AM 59.8°F15.4°C 55.9°F13.3°C 87% 5.8 mph WSW9.3 kmh WSW 8.1 mph13.0 kmh 30.07 in1018.3 mb - 0.00 in0.0 mm 0.00 in0.0 mm
02:20 AM 60.0°F15.6°C 56.1°F13.4°C 87% 4.6 mph WSW7.4 kmh WSW 8.1 mph13.0 kmh 30.06 in1017.9 mb - 0.00 in0.0 mm 0.00 in0.0 mm
02:30 AM 60.1°F15.6°C 56.2°F13.4°C 87% 4.6 mph W7.4 kmh W 8.1 mph13.0 kmh 30.06 in1017.9 mb - 0.00 in0.0 mm 0.00 in0.0 mm
02:40 AM 60.2°F15.7°C 56.3°F13.5°C 87% 5.8 mph WNW9.3 kmh WNW 8.1 mph13.0 kmh 30.06 in1017.9 mb - 0.00 in0.0 mm 0.00 in0.0 mm
02:50 AM 60.3°F15.7°C 56.4°F13.6°C 87% 6.9 mph WNW11.1 kmh WNW 8.1 mph13.0 kmh 30.06 in1017.9 mb - 0.00 in0.0 mm 0.00 in0.0 mm
03:00 AM 60.3°F15.7°C 56.4°F13.6°C 87% 5.8 mph WSW9.3 kmh WSW 8.1 mph13.0 kmh 30.06 in1017.9 mb - 0.00 in0.0 mm 0.00 in0.0 mm
03:10 AM 60.4°F15.8°C 56.5°F13.6°C 87% 4.6 mph WNW7.4 kmh WNW 8.1 mph13.0 kmh 30.06 in1017.9 mb - 0.00 in0.0 mm 0.00 in0.0 mm
03:20 AM 60.5°F15.8°C 56.6°F13.7°C 87% 3.5 mph WSW5.6 kmh WSW 8.1 mph13.0 kmh 30.05 in1017.6 mb - 0.00 in0.0 mm 0.00 in0.0 mm
03:30 AM 60.5°F15.8°C 56.6°F13.7°C 87% 4.6 mph NW7.4 kmh NW 11.5 mph18.5 kmh 30.06 in1017.9 mb - 0.00 in0.0 mm 0.00 in0.0 mm
03:40 AM 60.5°F15.8°C 56.6°F13.7°C 87% 3.5 mph W5.6 kmh W 5.8 mph9.3 kmh 30.06 in1017.9 mb - 0.00 in0.0 mm 0.00 in0.0 mm
03:50 AM 60.5°F15.8°C 56.6°F13.7°C 87% 3.5 mph W5.6 kmh W 11.5 mph18.5 kmh 30.05 in1017.6 mb - 0.00 in0.0 mm 0.00 in0.0 mm
04:00 AM 60.4°F15.8°C 56.5°F13.6°C 87% 3.5 mph SW5.6 kmh SW 6.9 mph11.1 kmh 30.05 in1017.6 mb - 0.00 in0.0 mm 0.00 in0.0 mm
04:10 AM 60.3°F15.7°C 56.4°F13.6°C 87% 5.8 mph SW9.3 kmh SW 8.1 mph13.0 kmh 30.05 in1017.6 mb - 0.00 in0.0 mm 0.00 in0.0 mm
04:20 AM 60.3°F15.7°C 56.4°F13.6°C 87% 6.9 mph W11.1 kmh W 12.7 mph20.4 kmh 30.05 in1017.6 mb - 0.00 in0.0 mm 0.00 in0.0 mm
04:30 AM 60.2°F15.7°C 56.3°F13.5°C 87% 4.6 mph W7.4 kmh W 6.9 mph11.1 kmh 30.05 in1017.6 mb - 0.00 in0.0 mm 0.00 in0.0 mm
04:40 AM 60.1°F15.6°C 56.2°F13.4°C 87% 4.6 mph W7.4 kmh W 8.1 mph13.0 kmh 30.05 in1017.6 mb - 0.00 in0.0 mm 0.00 in0.0 mm
04:50 AM 60.0°F15.6°C 56.1°F13.4°C 87% 4.6 mph SW7.4 kmh SW 8.1 mph13.0 kmh 30.05 in1017.6 mb - 0.00 in0.0 mm 0.00 in0.0 mm
05:00 AM 59.8°F15.4°C 55.9°F13.3°C 87% 4.6 mph W7.4 kmh W 8.1 mph13.0 kmh 30.05 in1017.6 mb - 0.00 in0.0 mm 0.00 in0.0 mm
05:10 AM 59.7°F15.4°C 55.8°F13.2°C 87% 4.6 mph SW7.4 kmh SW 8.1 mph13.0 kmh 30.05 in1017.6 mb - 0.00 in0.0 mm 0.00 in0.0 mm
05:20 AM 59.6°F15.3°C 55.7°F13.2°C 87% 3.5 mph S5.6 kmh S 6.9 mph11.1 kmh 30.05 in1017.6 mb - 0.00 in0.0 mm 0.00 in0.0 mm
05:30 AM 59.5°F15.3°C 55.6°F13.1°C 87% 4.6 mph SW7.4 kmh SW 9.2 mph14.8 kmh 30.05 in1017.6 mb - 0.00 in0.0 mm 0.00 in0.0 mm
05:40 AM 59.3°F15.2°C 55.4°F13.0°C 87% 5.8 mph WSW9.3 kmh WSW 8.1 mph13.0 kmh 30.06 in1017.9 mb - 0.00 in0.0 mm 0.00 in0.0 mm
05:50 AM 59.4°F15.2°C 55.8°F13.2°C 88% 3.5 mph WSW5.6 kmh WSW 8.1 mph13.0 kmh 30.05 in1017.6 mb - 0.00 in0.0 mm 0.00 in0.0 mm
06:00 AM 59.7°F15.4°C 56.1°F13.4°C 88% 5.8 mph NW9.3 kmh NW 8.1 mph13.0 kmh 30.06 in1017.9 mb - 0.00 in0.0 mm 0.00 in0.0 mm
06:10 AM 59.8°F15.4°C 56.2°F13.4°C 88% 4.6 mph W7.4 kmh W 8.1 mph13.0 kmh 30.06 in1017.9 mb - 0.00 in0.0 mm 0.00 in0.0 mm
06:20 AM 59.9°F15.5°C 56.3°F13.5°C 88% 3.5 mph W5.6 kmh W 9.2 mph14.8 kmh 30.06 in1017.9 mb - 0.00 in0.0 mm 0.00 in0.0 mm
06:30 AM 60.1°F15.6°C 56.5°F13.6°C 88% 4.6 mph WSW7.4 kmh WSW 8.1 mph13.0 kmh 30.06 in1017.9 mb - 0.00 in0.0 mm 0.00 in0.0 mm
06:40 AM 60.4°F15.8°C 56.8°F13.8°C 88% 3.5 mph WNW5.6 kmh WNW 5.8 mph9.3 kmh 30.06 in1017.9 mb - 0.00 in0.0 mm 0.00 in0.0 mm
06:50 AM 60.7°F15.9°C 57.2°F14.0°C 88% 5.8 mph WNW9.3 kmh WNW 11.5 mph18.5 kmh 30.06 in1017.9 mb - 0.00 in0.0 mm 0.00 in0.0 mm
07:00 AM 61.2°F16.2°C 57.6°F14.2°C 88% 3.5 mph W5.6 kmh W 8.1 mph13.0 kmh 30.06 in1017.9 mb - 0.00 in0.0 mm 0.00 in0.0 mm
07:10 AM 61.3°F16.3°C 57.7°F14.3°C 88% 6.9 mph SW11.1 kmh SW 11.5 mph18.5 kmh 30.06 in1017.9 mb - 0.00 in0.0 mm 0.00 in0.0 mm
07:20 AM 61.2°F16.2°C 57.6°F14.2°C 88% 6.9 mph SW11.1 kmh SW 11.5 mph18.5 kmh 30.06 in1017.9 mb - 0.00 in0.0 mm 0.00 in0.0 mm
07:30 AM 61.3°F16.3°C 57.7°F14.3°C 88% 5.8 mph SW9.3 kmh SW 12.7 mph20.4 kmh 30.06 in1017.9 mb - 0.00 in0.0 mm 0.00 in0.0 mm
07:40 AM 61.3°F16.3°C 57.7°F14.3°C 88% 3.5 mph SW5.6 kmh SW 9.2 mph14.8 kmh 30.07 in1018.3 mb - 0.00 in0.0 mm 0.00 in0.0 mm
07:50 AM 61.3°F16.3°C 57.7°F14.3°C 88% 6.9 mph SW11.1 kmh SW 11.5 mph18.5 kmh 30.06 in1017.9 mb - 0.00 in0.0 mm 0.00 in0.0 mm
08:00 AM 61.5°F16.4°C 57.9°F14.4°C 88% 4.6 mph WSW7.4 kmh WSW 9.2 mph14.8 kmh 30.06 in1017.9 mb - 0.00 in0.0 mm 0.00 in0.0 mm
08:10 AM 61.7°F16.5°C 58.1°F14.5°C 88% 5.8 mph WSW9.3 kmh WSW 11.5 mph18.5 kmh 30.06 in1017.9 mb - 0.00 in0.0 mm 0.00 in0.0 mm
08:20 AM 61.7°F16.5°C 58.1°F14.5°C 88% 5.8 mph W9.3 kmh W 8.1 mph13.0 kmh 30.06 in1017.9 mb - 0.00 in0.0 mm 0.00 in0.0 mm
08:30 AM 61.7°F16.5°C 58.1°F14.5°C 88% 3.5 mph WSW5.6 kmh WSW 11.5 mph18.5 kmh 30.05 in1017.6 mb - 0.00 in0.0 mm 0.00 in0.0 mm
08:40 AM 61.8°F16.6°C 58.2°F14.6°C 88% 4.6 mph WSW7.4 kmh WSW 8.1 mph13.0 kmh 30.06 in1017.9 mb - 0.00 in0.0 mm 0.00 in0.0 mm
08:50 AM 62.0°F16.7°C 58.4°F14.7°C 88% 2.3 mph NW3.7 kmh NW 4.6 mph7.4 kmh 30.05 in1017.6 mb - 0.00 in0.0 mm 0.00 in0.0 mm
09:00 AM 62.3°F16.8°C 58.7°F14.8°C 88% 4.6 mph WNW7.4 kmh WNW 11.5 mph18.5 kmh 30.06 in1017.9 mb - 0.00 in0.0 mm 0.00 in0.0 mm
09:10 AM 62.6°F17.0°C 59.0°F15.0°C 88% 1.2 mph WNW1.9 kmh WNW 2.3 mph3.7 kmh 30.06 in1017.9 mb - 0.00 in0.0 mm 0.00 in0.0 mm
09:20 AM 62.9°F17.2°C 59.3°F15.2°C 88% 1.2 mph S1.9 kmh S 2.3 mph3.7 kmh 30.06 in1017.9 mb - 0.00 in0.0 mm 0.00 in0.0 mm
09:30 AM 63.0°F17.2°C 59.3°F15.2°C 88% 1.2 mph ESE1.9 kmh ESE 4.6 mph7.4 kmh 30.06 in1017.9 mb - 0.00 in0.0 mm 0.00 in0.0 mm
09:40 AM 63.2°F17.3°C 59.3°F15.2°C 87% 6.9 mph WSW11.1 kmh WSW 12.7 mph20.4 kmh 30.06 in1017.9 mb - 0.00 in0.0 mm 0.00 in0.0 mm
09:50 AM 63.6°F17.6°C 59.7°F15.4°C 87% 6.9 mph SW11.1 kmh SW 11.5 mph18.5 kmh 30.05 in1017.6 mb - 0.00 in0.0 mm 0.00 in0.0 mm
10:00 AM 64.3°F17.9°C 60.3°F15.7°C 87% 4.6 mph SW7.4 kmh SW 9.2 mph14.8 kmh 30.06 in1017.9 mb - 0.00 in0.0 mm 0.00 in0.0 mm
10:10 AM 64.9°F18.3°C 60.6°F15.9°C 86% 4.6 mph SW7.4 kmh SW 6.9 mph11.1 kmh 30.06 in1017.9 mb - 0.00 in0.0 mm 0.00 in0.0 mm
10:20 AM 65.1°F18.4°C 60.4°F15.8°C 85% 4.6 mph SSW7.4 kmh SSW 6.9 mph11.1 kmh 30.06 in1017.9 mb - 0.00 in0.0 mm 0.00 in0.0 mm
10:30 AM 65.3°F18.5°C 60.7°F15.9°C 85% 6.9 mph W11.1 kmh W 9.2 mph14.8 kmh 30.05 in1017.6 mb - 0.00 in0.0 mm 0.00 in0.0 mm
10:40 AM 65.5°F18.6°C 60.9°F16.1°C 85% 8.1 mph WSW13.0 kmh WSW 11.5 mph18.5 kmh 30.05 in1017.6 mb - 0.00 in0.0 mm 0.00 in0.0 mm
10:50 AM 65.9°F18.8°C 61.3°F16.3°C 85% 6.9 mph SW11.1 kmh SW 11.5 mph18.5 kmh 30.05 in1017.6 mb - 0.00 in0.0 mm 0.00 in0.0 mm
11:00 AM 66.6°F19.2°C 61.6°F16.4°C 84% 8.1 mph W13.0 kmh W 13.8 mph22.2 kmh 30.05 in1017.6 mb - 0.00 in0.0 mm 0.00 in0.0 mm
11:10 AM 67.2°F19.6°C 61.9°F16.6°C 83% 8.1 mph W13.0 kmh W 13.8 mph22.2 kmh 30.05 in1017.6 mb - 0.00 in0.0 mm 0.00 in0.0 mm
11:20 AM 67.5°F19.7°C 62.2°F16.8°C 83% 5.8 mph W9.3 kmh W 11.5 mph18.5 kmh 30.05 in1017.6 mb - 0.00 in0.0 mm 0.00 in0.0 mm
11:30 AM 68.0°F20.0°C 62.3°F16.8°C 82% 8.1 mph W13.0 kmh W 13.8 mph22.2 kmh 30.05 in1017.6 mb - 0.00 in0.0 mm 0.00 in0.0 mm
11:40 AM 68.6°F20.3°C 62.9°F17.2°C 82% 8.1 mph WNW13.0 kmh WNW 11.5 mph18.5 kmh 30.05 in1017.6 mb - 0.00 in0.0 mm 0.00 in0.0 mm
11:50 AM 68.8°F20.4°C 62.7°F17.1°C 81% 8.1 mph W13.0 kmh W 16.1 mph25.9 kmh 30.05 in1017.6 mb - 0.00 in0.0 mm 0.00 in0.0 mm
12:00 PM 68.8°F20.4°C 62.7°F17.1°C 81% 9.2 mph NW14.8 kmh NW 15.0 mph24.1 kmh 30.05 in1017.6 mb - 0.00 in0.0 mm 0.00 in0.0 mm
12:10 PM 69.0°F20.6°C 62.6°F17.0°C 80% 11.5 mph WSW18.5 kmh WSW 16.1 mph25.9 kmh 30.05 in1017.6 mb - 0.00 in0.0 mm 0.00 in0.0 mm
12:20 PM 68.8°F20.4°C 62.7°F17.1°C 81% 9.2 mph WSW14.8 kmh WSW 16.1 mph25.9 kmh 30.05 in1017.6 mb - 0.00 in0.0 mm 0.00 in0.0 mm
12:30 PM 69.3°F20.7°C 62.9°F17.2°C 80% 8.1 mph W13.0 kmh W 15.0 mph24.1 kmh 30.05 in1017.6 mb - 0.00 in0.0 mm 0.00 in0.0 mm
12:40 PM 69.4°F20.8°C 62.9°F17.2°C 80% 8.1 mph WSW13.0 kmh WSW 13.8 mph22.2 kmh 30.05 in1017.6 mb - 0.00 in0.0 mm 0.00 in0.0 mm
12:50 PM 69.4°F20.8°C 63.0°F17.2°C 80% 10.4 mph W16.7 kmh W 18.4 mph29.6 kmh 30.05 in1017.6 mb - 0.00 in0.0 mm 0.00 in0.0 mm
01:00 PM 69.6°F20.9°C 62.8°F17.1°C 79% 8.1 mph W13.0 kmh W 15.0 mph24.1 kmh 30.05 in1017.6 mb - 0.00 in0.0 mm 0.00 in0.0 mm
01:10 PM 69.1°F20.6°C 63.0°F17.2°C 81% 8.1 mph W13.0 kmh W 16.1 mph25.9 kmh 30.05 in1017.6 mb - 0.00 in0.0 mm 0.00 in0.0 mm
01:20 PM 69.0°F20.6°C 62.9°F17.2°C 81% 8.1 mph NW13.0 kmh NW 16.1 mph25.9 kmh 30.04 in1017.3 mb - 0.00 in0.0 mm 0.00 in0.0 mm
01:30 PM 69.8°F21.0°C 63.3°F17.4°C 80% 6.9 mph WSW11.1 kmh WSW 13.8 mph22.2 kmh 30.04 in1017.3 mb - 0.00 in0.0 mm 0.00 in0.0 mm
01:40 PM 69.5°F20.8°C 63.0°F17.2°C 80% 10.4 mph WSW16.7 kmh WSW 16.1 mph25.9 kmh 30.04 in1017.3 mb - 0.00 in0.0 mm 0.00 in0.0 mm
01:50 PM 68.9°F20.5°C 62.5°F16.9°C 80% 9.2 mph W14.8 kmh W 16.1 mph25.9 kmh 30.04 in1017.3 mb - 0.00 in0.0 mm 0.00 in0.0 mm
02:00 PM 68.9°F20.5°C 62.2°F16.8°C 79% 11.5 mph W18.5 kmh W 21.9 mph35.2 kmh 30.04 in1017.3 mb - 0.00 in0.0 mm 0.00 in0.0 mm
02:10 PM 68.6°F20.3°C 62.2°F16.8°C 80% 10.4 mph WNW16.7 kmh WNW 16.1 mph25.9 kmh 30.04 in1017.3 mb - 0.00 in0.0 mm 0.00 in0.0 mm
02:20 PM 68.9°F20.5°C 62.8°F17.1°C 81% 9.2 mph SW14.8 kmh SW 13.8 mph22.2 kmh 30.03 in1016.9 mb - 0.00 in0.0 mm 0.00 in0.0 mm
02:30 PM 69.0°F20.6°C 62.6°F17.0°C 80% 10.4 mph W16.7 kmh W 15.0 mph24.1 kmh 30.04 in1017.3 mb - 0.00 in0.0 mm 0.00 in0.0 mm
02:40 PM 68.5°F20.3°C 62.1°F16.7°C 80% 10.4 mph WSW16.7 kmh WSW 19.6 mph31.5 kmh 30.04 in1017.3 mb - 0.00 in0.0 mm 0.00 in0.0 mm
02:50 PM 68.3°F20.2°C 61.5°F16.4°C 79% 10.4 mph WNW16.7 kmh WNW 16.1 mph25.9 kmh 30.03 in1016.9 mb - 0.00 in0.0 mm 0.00 in0.0 mm
03:00 PM 68.4°F20.2°C 61.6°F16.4°C 79% 11.5 mph WSW18.5 kmh WSW 18.4 mph29.6 kmh 30.03 in1016.9 mb - 0.00 in0.0 mm 0.00 in0.0 mm
03:10 PM 67.9°F19.9°C 61.5°F16.4°C 80% 9.2 mph WSW14.8 kmh WSW 15.0 mph24.1 kmh 30.03 in1016.9 mb - 0.00 in0.0 mm 0.00 in0.0 mm
03:20 PM 68.1°F20.1°C 62.1°F16.7°C 81% 5.8 mph W9.3 kmh W 13.8 mph22.2 kmh 30.03 in1016.9 mb - 0.00 in0.0 mm 0.00 in0.0 mm
03:30 PM 68.1°F20.1°C 61.7°F16.5°C 80% 8.1 mph WSW13.0 kmh WSW 11.5 mph18.5 kmh 30.02 in1016.6 mb - 0.00 in0.0 mm 0.00 in0.0 mm
03:40 PM 68.2°F20.1°C 61.8°F16.6°C 80% 5.8 mph SW9.3 kmh SW 11.5 mph18.5 kmh 30.02 in1016.6 mb - 0.00 in0.0 mm 0.00 in0.0 mm
03:50 PM 67.9°F19.9°C 61.5°F16.4°C 80% 10.4 mph SW16.7 kmh SW 18.4 mph29.6 kmh 30.02 in1016.6 mb - 0.00 in0.0 mm 0.00 in0.0 mm
04:00 PM 67.3°F19.6°C 61.3°F16.3°C 81% 9.2 mph W14.8 kmh W 16.1 mph25.9 kmh 30.02 in1016.6 mb - 0.00 in0.0 mm 0.00 in0.0 mm
04:10 PM 67.2°F19.6°C 61.5°F16.4°C 82% 9.2 mph WSW14.8 kmh WSW 13.8 mph22.2 kmh 30.02 in1016.6 mb - 0.00 in0.0 mm 0.00 in0.0 mm
04:20 PM 66.8°F19.3°C 61.1°F16.2°C 82% 6.9 mph W11.1 kmh W 11.5 mph18.5 kmh 30.02 in1016.6 mb - 0.00 in0.0 mm 0.00 in0.0 mm
04:50 PM 64.7°F18.2°C 60.1°F15.6°C 85% 8.1 mph W13.0 kmh W 15.0 mph24.1 kmh 30.02 in1016.6 mb - 0.00 in0.0 mm 0.00 in0.0 mm
05:00 PM 64.7°F18.2°C 60.4°F15.8°C 86% 5.8 mph SW9.3 kmh SW 15.0 mph24.1 kmh 30.02 in1016.6 mb - 0.00 in0.0 mm 0.00 in0.0 mm
05:20 PM 65.3°F18.5°C 61.0°F16.1°C 86% 6.9 mph W11.1 kmh W 15.0 mph24.1 kmh 30.02 in1016.6 mb - 0.00 in0.0 mm 0.00 in0.0 mm
05:30 PM 65.4°F18.6°C 60.8°F16.0°C 85% 6.9 mph SW11.1 kmh SW 13.8 mph22.2 kmh 30.02 in1016.6 mb - 0.00 in0.0 mm 0.00 in0.0 mm
05:50 PM 64.2°F17.9°C 59.9°F15.5°C 86% 6.9 mph SSW11.1 kmh SSW 9.2 mph14.8 kmh 30.02 in1016.6 mb - 0.00 in0.0 mm 0.00 in0.0 mm
06:00 PM 63.8°F17.7°C 59.9°F15.5°C 87% 4.6 mph W7.4 kmh W 9.2 mph14.8 kmh 30.02 in1016.6 mb - 0.00 in0.0 mm 0.00 in0.0 mm
06:10 PM 63.5°F17.5°C 59.6°F15.3°C 87% 6.9 mph W11.1 kmh W 11.5 mph18.5 kmh 30.02 in1016.6 mb - 0.00 in0.0 mm 0.00 in0.0 mm
06:20 PM 63.5°F17.5°C 59.6°F15.3°C 87% 4.6 mph NNW7.4 kmh NNW 6.9 mph11.1 kmh 30.01 in1016.3 mb - 0.00 in0.0 mm 0.00 in0.0 mm
06:30 PM 63.4°F17.4°C 59.5°F15.3°C 87% 6.9 mph WSW11.1 kmh WSW 9.2 mph14.8 kmh 30.00 in1015.9 mb - 0.00 in0.0 mm 0.00 in0.0 mm
06:40 PM 63.4°F17.4°C 59.8°F15.4°C 88% 8.1 mph WNW13.0 kmh WNW 13.8 mph22.2 kmh 30.00 in1015.9 mb - 0.00 in0.0 mm 0.00 in0.0 mm
06:50 PM 63.4°F17.4°C 59.8°F15.4°C 88% 6.9 mph N11.1 kmh N 12.7 mph20.4 kmh 30.00 in1015.9 mb - 0.00 in0.0 mm 0.00 in0.0 mm
07:00 PM 63.3°F17.4°C 59.7°F15.4°C 88% 10.4 mph W16.7 kmh W 15.0 mph24.1 kmh 29.99 in1015.6 mb - 0.00 in0.0 mm 0.00 in0.0 mm
07:10 PM 63.3°F17.4°C 59.7°F15.4°C 88% 10.4 mph WSW16.7 kmh WSW 19.6 mph31.5 kmh 29.99 in1015.6 mb - 0.00 in0.0 mm 0.00 in0.0 mm
07:20 PM 63.3°F17.4°C 59.7°F15.4°C 88% 9.2 mph WNW14.8 kmh WNW 19.6 mph31.5 kmh 29.99 in1015.6 mb - 0.00 in0.0 mm 0.00 in0.0 mm
07:30 PM 63.2°F17.3°C 59.6°F15.3°C 88% 8.1 mph SW13.0 kmh SW 12.7 mph20.4 kmh 29.98 in1015.2 mb - 0.00 in0.0 mm 0.00 in0.0 mm
07:40 PM 63.1°F17.3°C 59.5°F15.3°C 88% 10.4 mph W16.7 kmh W 15.0 mph24.1 kmh 29.98 in1015.2 mb - 0.00 in0.0 mm 0.00 in0.0 mm
07:50 PM 63.0°F17.2°C 59.7°F15.4°C 89% 10.4 mph WNW16.7 kmh WNW 16.1 mph25.9 kmh 29.98 in1015.2 mb - 0.00 in0.0 mm 0.00 in0.0 mm
08:00 PM 63.0°F17.2°C 59.7°F15.4°C 89% 9.2 mph SW14.8 kmh SW 16.1 mph25.9 kmh 29.97 in1014.9 mb - 0.00 in0.0 mm 0.00 in0.0 mm
08:10 PM 63.0°F17.2°C 59.7°F15.4°C 89% 11.5 mph W18.5 kmh W 19.6 mph31.5 kmh 29.97 in1014.9 mb - 0.00 in0.0 mm 0.00 in0.0 mm
08:20 PM 63.0°F17.2°C 59.7°F15.4°C 89% 10.4 mph SW16.7 kmh SW 16.1 mph25.9 kmh 29.97 in1014.9 mb - 0.00 in0.0 mm 0.00 in0.0 mm
08:30 PM 63.0°F17.2°C 59.7°F15.4°C 89% 12.7 mph WSW20.4 kmh WSW 18.4 mph29.6 kmh 29.96 in1014.6 mb - 0.01 in0.3 mm 0.01 in0.3 mm
08:40 PM 63.0°F17.2°C 59.7°F15.4°C 89% 16.1 mph SW25.9 kmh SW 21.9 mph35.2 kmh 29.96 in1014.6 mb - 0.01 in0.3 mm 0.01 in0.3 mm
08:50 PM 62.9°F17.2°C 59.6°F15.3°C 89% 11.5 mph WSW18.5 kmh WSW 19.6 mph31.5 kmh 29.95 in1014.2 mb - 0.01 in0.3 mm 0.01 in0.3 mm
09:00 PM 62.8°F17.1°C 59.5°F15.3°C 89% 11.5 mph SW18.5 kmh SW 18.4 mph29.6 kmh 29.95 in1014.2 mb - 0.01 in0.3 mm 0.01 in0.3 mm
09:10 PM 62.8°F17.1°C 59.5°F15.3°C 89% 16.1 mph SW25.9 kmh SW 21.9 mph35.2 kmh 29.95 in1014.2 mb - 0.01 in0.3 mm 0.01 in0.3 mm
09:20 PM 62.7°F17.1°C 59.5°F15.3°C 89% 11.5 mph WSW18.5 kmh WSW 19.6 mph31.5 kmh 29.95 in1014.2 mb - 0.02 in0.5 mm 0.02 in0.5 mm
09:30 PM 62.7°F17.1°C 59.5°F15.3°C 89% 9.2 mph SW14.8 kmh SW 15.0 mph24.1 kmh 29.95 in1014.2 mb - 0.01 in0.3 mm 0.02 in0.5 mm
09:40 PM 62.7°F17.1°C 59.4°F15.2°C 89% 11.5 mph W18.5 kmh W 19.6 mph31.5 kmh 29.94 in1013.9 mb - 0.01 in0.3 mm 0.02 in0.5 mm
09:50 PM 62.6°F17.0°C 59.3°F15.2°C 89% 10.4 mph WSW16.7 kmh WSW 21.9 mph35.2 kmh 29.94 in1013.9 mb - 0.01 in0.3 mm 0.02 in0.5 mm
10:00 PM 62.7°F17.1°C 59.4°F15.2°C 89% 12.7 mph SW20.4 kmh SW 21.9 mph35.2 kmh 29.94 in1013.9 mb - 0.01 in0.3 mm 0.02 in0.5 mm
10:10 PM 62.8°F17.1°C 59.5°F15.3°C 89% 10.4 mph WNW16.7 kmh WNW 21.9 mph35.2 kmh 29.94 in1013.9 mb - 0.01 in0.3 mm 0.02 in0.5 mm
10:20 PM 62.8°F17.1°C 59.5°F15.3°C 89% 9.2 mph WSW14.8 kmh WSW 16.1 mph25.9 kmh 29.93 in1013.5 mb - 0.00 in0.0 mm 0.02 in0.5 mm
10:30 PM 62.8°F17.1°C 59.5°F15.3°C 89% 10.4 mph NW16.7 kmh NW 18.4 mph29.6 kmh 29.93 in1013.5 mb - 0.01 in0.3 mm 0.02 in0.5 mm
10:40 PM 62.8°F17.1°C 59.5°F15.3°C 89% 9.2 mph W14.8 kmh W 13.8 mph22.2 kmh 29.93 in1013.5 mb - 0.01 in0.3 mm 0.02 in0.5 mm
10:50 PM 62.8°F17.1°C 59.5°F15.3°C 89% 8.1 mph WSW13.0 kmh WSW 16.1 mph25.9 kmh 29.92 in1013.2 mb - 0.01 in0.3 mm 0.02 in0.5 mm
11:00 PM 62.8°F17.1°C 59.5°F15.3°C 89% 9.2 mph W14.8 kmh W 18.4 mph29.6 kmh 29.92 in1013.2 mb - 0.01 in0.3 mm 0.16 in4.1 mm
11:10 PM 62.9°F17.2°C 59.6°F15.3°C 89% 8.1 mph W13.0 kmh W 27.6 mph44.4 kmh 29.92 in1013.2 mb - 0.01 in0.3 mm 0.17 in4.3 mm
11:20 PM 62.9°F17.2°C 59.6°F15.3°C 89% 10.4 mph W16.7 kmh W 21.9 mph35.2 kmh 29.91 in1012.9 mb - 0.01 in0.3 mm 0.18 in4.6 mm
11:30 PM 62.8°F17.1°C 59.5°F15.3°C 89% 12.7 mph W20.4 kmh W 26.5 mph42.6 kmh 29.91 in1012.9 mb - 0.01 in0.3 mm 0.01 in0.3 mm
11:40 PM 62.6°F17.0°C 59.3°F15.2°C 89% 12.7 mph WNW20.4 kmh WNW 23.0 mph37.0 kmh 29.91 in1012.9 mb - 0.01 in0.3 mm 0.01 in0.3 mm
11:50 PM 62.4°F16.9°C 59.1°F15.1°C 89% 9.2 mph W14.8 kmh W 15.0 mph24.1 kmh 29.91 in1012.9 mb - 0.01 in0.3 mm 0.01 in0.3 mm